Language selection

My Weather Profile Weather Topics  | 

West Coast Vancouver Island North: Past 24 Hour Conditions

 

Grey Islet

02:00 PM PDT 19 October 2021
Disclaimer

This table is a summary of hourly weather conditions for the past 24 hours.
Please note that these observations might not always be representative of weather conditions over their associated marine area.

Date / Time
(PDT)
Wind(knots) Conditions Visibility(km) Pressure(kPa) Air tempC) Relative humidity(%) Dew pointC)
19 October 2021
14:00 ENE 35 gust 40 N/A N/A 100.4 9 64 3
13:00 NE 32 gust 39 N/A N/A 100.5 9 67 3
12:00 ENE 34 gust 40 N/A N/A 100.5 9 67 3
11:00 ENE 30 gust 37 N/A N/A 100.6 9 65 3
10:00 ENE 28 gust 38 N/A N/A 100.7 9 66 3
9:00 ENE 33 gust 39 N/A N/A 100.7 9 68 3
8:00 ENE 34 gust 40 N/A N/A 100.7 9 70 3
7:00 ENE 36 N/A N/A 100.7 8 70 3
6:00 ENE 33 gust 39 N/A N/A 100.8 9 69 3
5:00 ENE 32 gust 37 N/A N/A 100.8 9 70 3
4:00 ENE 29 gust 35 N/A N/A 100.9 8 72 4
3:00 ENE 29 gust 35 N/A N/A 100.9 8 72 4
2:00 ENE 28 N/A N/A 101.0 9 72 4
1:00 ENE 28 N/A N/A 101.0 8 73 4
0:00 ENE 29 N/A N/A 101.0 8 73 4
18 October 2021
23:00 ENE 24 gust 31 N/A N/A 101.0 8 73 4
22:00 ENE 22 gust 27 N/A N/A 101.0 9 70 3
21:00 ENE 25 N/A N/A 101.0 8 67 3
20:00 ENE 24 N/A N/A 101.0 8 70 3
19:00 ENE 27 N/A N/A 100.9 8 70 3
18:00 ENE 28 N/A N/A 101.0 8 69 3
17:00 ENE 23 N/A N/A 101.0 8 68 3
16:00 ENE 21 N/A N/A 101.1 8 71 3
15:00 ENE 22 gust 28 N/A N/A 101.1 8 69 3
14:00 ENE 22 N/A N/A 101.1 8 71 3

Zoom-in to make a selection

Map of Pacific - North Coast marine weather areas Middle Nomad - 46004 South Nomad - 46036 Dixon Entrance Central - 46145 South Moresby - 46147 Nanakwa Shoal - 46181 North Hecate Strait - 46183 North Nomad - 46184 South Hecate Strait - 46185 West Sea Otter - 46204 West Dixon Entrance - 46205 East Dellwood - 46207 West Moresby - 46208 Sartine Island Cape St.James Kindakun Rocks Langara Island Masset Municipal Airport Rose Spit Sandspit Airport Bella Bella Airport Bella Coola Airport Bonilla Island Cathedral Point Cumshewa Island Grey Islet Holland Rock Lucy Islands Lightstation Prince Rupert Airport
Legend:
buoy Buoy
land station Land Station

Pacific - North Coast Area

Another Region

What we are doing

Date modified: